Time;durP1;ratioP1;P1;durP2;ratioP2;P2;SDS_P1;SDS_P2;PMS_P1;PMS_P2;Temp;Humidity;BMP_temperature;BMP_pressure;BME280_temperature;BME280_humidity;BME280_pressure;Samples;Min_cycle;Max_cycle;Signal;HPM_P1;HPM_P2
2023/04/13 00:01:18;;;;;;;21.20;3.58;;;11.00;91.10;;;;;;7403744;19;20002;-72
2023/04/13 00:03:49;;;;;;;23.45;2.58;;;10.50;91.50;;;;;;7383820;19;20046;-72
2023/04/13 00:06:18;;;;;;;18.10;3.28;;;10.50;91.90;;;;;;7383825;19;20055;-71
2023/04/13 00:08:47;;;;;;;17.23;2.63;;;10.70;91.90;;;;;;7384668;19;20031;-72
2023/04/13 00:11:21;;;;;;;18.90;3.20;;;10.60;92.10;;;;;;7382716;19;20019;-72
2023/04/13 00:13:49;;;;;;;18.52;3.00;;;10.60;92.30;;;;;;7381576;19;20027;-72
2023/04/13 00:16:18;;;;;;;26.02;3.72;;;10.80;92.20;;;;;;7405900;19;20062;-71
2023/04/13 00:18:51;;;;;;;18.65;2.75;;;10.50;92.10;;;;;;7381340;19;20036;-72
2023/04/13 00:21:19;;;;;;;17.98;2.47;;;10.60;92.30;;;;;;7380098;19;20591;-71
2023/04/13 00:23:48;;;;;;;22.48;2.75;;;10.40;92.60;;;;;;7380525;19;20376;-72
2023/04/13 00:26:19;;;;;;;14.90;2.35;;;10.60;92.40;;;;;;7383093;19;20006;-71
2023/04/13 00:28:48;;;;;;;20.33;3.10;;;10.60;92.30;;;;;;7382190;19;20011;-72
2023/04/13 00:31:16;;;;;;;17.65;2.63;;;10.90;92.10;;;;;;7402397;19;20421;-72
2023/04/13 00:33:45;;;;;;;28.58;3.28;;;10.90;92.10;;;;;;7382818;19;20003;-72
2023/04/13 00:36:16;;;;;;;23.02;3.42;;;10.60;92.00;;;;;;7382577;19;20020;-72
2023/04/13 00:38:46;;;;;;;23.50;2.65;;;10.80;92.00;;;;;;7381342;19;20010;-72
2023/04/13 00:41:15;;;;;;;19.17;2.75;;;10.80;91.90;;;;;;7381710;19;20010;-72
2023/04/13 00:43:43;;;;;;;19.95;3.53;;;11.10;91.80;;;;;;7381168;19;20082;-72
2023/04/13 00:46:15;;;;;;;23.48;3.20;;;11.10;91.70;;;;;;7403842;19;20413;-72
2023/04/13 00:48:44;;;;;;;22.77;2.83;;;11.10;91.70;;;;;;7382242;19;20014;-72
2023/04/13 00:51:16;;;;;;;16.08;3.45;;;11.30;91.50;;;;;;7382665;19;20052;-72
2023/04/13 00:53:45;;;;;;;23.63;2.72;;;11.40;91.30;;;;;;7382958;19;20365;-71
2023/04/13 00:56:14;;;;;;;19.75;3.25;;;11.00;91.30;;;;;;7382967;19;20250;-71
2023/04/13 00:58:44;;;;;;;27.20;3.30;;;11.30;91.30;;;;;;7380303;19;20034;-71
2023/04/13 01:01:13;;;;;;;23.80;3.58;;;11.20;91.60;;;;;;7404398;19;20006;-71
2023/04/13 01:03:41;;;;;;;19.02;2.72;;;11.20;91.30;;;;;;7381632;19;20011;-71
2023/04/13 01:06:21;;;;;;;19.20;2.85;;;11.20;91.30;;;;;;7381686;19;20075;-71
2023/04/13 01:08:55;;;;;;;22.88;3.30;;;11.00;91.20;;;;;;7381086;19;20489;-71
2023/04/13 01:11:30;;;;;;;27.60;3.10;;;10.90;91.40;;;;;;7381544;19;20013;-71
2023/04/13 01:14:07;;;;;;;34.55;4.10;;;10.80;91.70;;;;;;7381989;19;20007;-71
2023/04/13 01:16:41;;;;;;;23.70;3.53;;;10.80;91.90;;;;;;7379869;19;20030;-72
2023/04/13 01:19:16;;;;;;;18.73;3.50;;;10.60;91.70;;;;;;7401190;19;20078;-71
2023/04/13 01:21:48;;;;;;;17.55;3.45;;;10.50;92.00;;;;;;7381022;19;19999;-71
2023/04/13 01:24:37;;;;;;;29.90;4.20;;;10.60;91.80;;;;;;7380471;19;20006;-72
2023/04/13 01:27:12;;;;;;;26.48;3.78;;;10.90;91.70;;;;;;7380759;19;20006;-71
2023/04/13 01:29:46;;;;;;;33.40;4.38;;;11.00;91.60;;;;;;7381535;19;20074;-71
2023/04/13 01:32:16;;;;;;;22.25;2.92;;;10.90;91.50;;;;;;7381549;19;20365;-70
2023/04/13 01:34:45;;;;;;;25.88;3.25;;;11.00;91.50;;;;;;7381301;19;20006;-70
2023/04/13 01:37:15;;;;;;;22.65;4.22;;;11.10;91.30;;;;;;7404914;19;20022;-70
2023/04/13 01:39:45;;;;;;;29.30;3.47;;;10.90;91.10;;;;;;7382091;19;20308;-70
2023/04/13 01:42:13;;;;;;;24.88;3.75;;;11.00;91.30;;;;;;7382145;19;20026;-70
2023/04/13 01:44:45;;;;;;;28.25;3.67;;;11.00;91.40;;;;;;7381638;19;20016;-71
2023/04/13 01:47:20;;;;;;;19.00;3.13;;;11.10;90.90;;;;;;7380232;19;20017;-71
2023/04/13 01:49:57;;;;;;;25.17;3.47;;;10.70;91.00;;;;;;7381249;19;20062;-71
2023/04/13 01:52:28;;;;;;;17.10;3.22;;;10.70;91.30;;;;;;7400714;19;20003;-71
2023/04/13 01:54:58;;;;;;;;;;;10.80;91.40;;;;;;7381078;19;20007;-71
2023/04/13 01:57:27;;;;;;;18.80;3.08;;;10.80;91.50;;;;;;7380316;19;19974;-71
2023/04/13 01:59:59;;;;;;;25.95;2.85;;;10.80;91.20;;;;;;7380307;19;20358;-71
2023/04/13 02:02:29;;;;;;;26.50;3.45;;;10.50;91.40;;;;;;7380487;19;20015;-71
2023/04/13 02:04:58;;;;;;;15.73;2.97;;;10.70;91.50;;;;;;7379499;19;19999;-72
2023/04/13 02:07:27;;;;;;;21.45;3.53;;;10.50;91.40;;;;;;7400431;19;20011;-71
2023/04/13 02:09:56;;;;;;;27.52;4.10;;;10.40;91.80;;;;;;7379868;19;20346;-71
2023/04/13 02:12:25;;;;;;;22.63;3.42;;;10.70;91.60;;;;;;7379321;19;20066;-72
2023/04/13 02:14:58;;;;;;;21.33;3.38;;;10.70;91.50;;;;;;7380672;19;20011;-72
2023/04/13 02:17:28;;;;;;;21.33;2.70;;;10.60;91.50;;;;;;7379330;19;20283;-72
2023/04/13 02:19:57;;;;;;;24.98;3.38;;;10.70;91.40;;;;;;7379564;19;20067;-72
2023/04/13 02:22:26;;;;;;;26.90;4.05;;;10.60;91.40;;;;;;7399406;19;20003;-72
2023/04/13 02:24:56;;;;;;;22.48;4.40;;;10.60;91.60;;;;;;7379039;19;20390;-72
2023/04/13 02:27:25;;;;;;;28.90;4.35;;;10.60;91.80;;;;;;7377999;19;20105;-72
2023/04/13 02:29:54;;;;;;;23.75;3.38;;;10.50;91.90;;;;;;7378488;19;20380;-71
2023/04/13 02:32:26;;;;;;;17.95;3.30;;;10.40;91.90;;;;;;7378750;19;20010;-72
2023/04/13 02:34:55;;;;;;;17.85;2.97;;;10.30;92.30;;;;;;7378142;19;20009;-72
2023/04/13 02:37:24;;;;;;;30.15;3.83;;;10.40;92.40;;;;;;7401533;19;20003;-71
2023/04/13 02:39:55;;;;;;;;;;;10.70;92.00;;;;;;7379847;19;20007;-71
2023/04/13 02:42:24;;;;;;;25.88;2.97;;;10.40;91.80;;;;;;7378948;19;19923;-71
2023/04/13 02:44:52;;;;;;;32.42;3.40;;;10.30;92.20;;;;;;7379228;19;20007;-71
2023/04/13 02:47:21;;;;;;;17.58;3.22;;;10.30;92.30;;;;;;7379689;19;20019;-72
2023/04/13 02:49:52;;;;;;;33.78;3.90;;;10.50;92.00;;;;;;7377403;19;20014;-71
2023/04/13 02:52:21;;;;;;;27.35;2.88;;;10.40;92.00;;;;;;7400271;19;20055;-72
2023/04/13 02:54:54;;;;;;;22.55;3.97;;;10.40;92.10;;;;;;7378100;19;20055;-72
2023/04/13 02:57:23;;;;;;;20.58;3.67;;;10.20;91.90;;;;;;7377932;19;20367;-72
2023/04/13 02:59:52;;;;;;;21.88;3.22;;;10.20;92.20;;;;;;7378958;19;20007;-73
2023/04/13 03:02:20;;;;;;;23.98;3.65;;;10.20;92.00;;;;;;7377685;19;20003;-72
2023/04/13 03:04:52;;;;;;;29.42;2.90;;;10.50;92.00;;;;;;7378714;19;20010;-71
2023/04/13 03:07:21;;;;;;;24.17;4.03;;;10.60;91.90;;;;;;7399533;19;20031;-71
2023/04/13 03:09:50;;;;;;;18.70;3.00;;;10.40;91.80;;;;;;7377598;19;20011;-71
2023/04/13 03:12:19;;;;;;;23.35;3.33;;;10.60;91.70;;;;;;7377698;19;20021;-71
2023/04/13 03:14:50;;;;;;;30.83;3.97;;;10.50;91.80;;;;;;7378088;19;20762;-71
2023/04/13 03:17:19;;;;;;;30.52;3.65;;;10.30;92.00;;;;;;7377401;19;20288;-71
2023/04/13 03:19:48;;;;;;;29.77;3.72;;;10.30;92.00;;;;;;7378131;19;20003;-71
2023/04/13 03:22:19;;;;;;;26.38;2.80;;;10.40;92.00;;;;;;7400481;19;20018;-72
2023/04/13 03:24:48;;;;;;;24.27;3.72;;;10.50;91.80;;;;;;7377951;19;20058;-71
2023/04/13 03:27:17;;;;;;;23.13;3.63;;;10.40;91.80;;;;;;7377062;19;20007;-71
2023/04/13 03:29:46;;;;;;;30.00;4.45;;;10.60;91.70;;;;;;7378216;19;20055;-73
2023/04/13 03:32:14;;;;;;;30.60;3.95;;;10.80;91.60;;;;;;7378014;19;20062;-71
2023/04/13 03:34:43;;;;;;;25.23;3.40;;;10.70;91.50;;;;;;7376322;19;20027;-71
2023/04/13 03:37:12;;;;;;;25.02;3.67;;;10.80;91.60;;;;;;7398648;19;20384;-71
2023/04/13 03:39:43;;;;;;;20.50;3.17;;;10.70;91.50;;;;;;7376940;19;20134;-71
2023/04/13 03:42:12;;;;;;;29.73;3.85;;;10.60;91.60;;;;;;7377514;19;20071;-71
2023/04/13 03:44:41;;;;;;;21.55;4.20;;;10.60;91.60;;;;;;7377548;19;20016;-72
2023/04/13 03:47:10;;;;;;;19.55;3.25;;;10.40;91.90;;;;;;7378196;19;20007;-70
2023/04/13 03:49:39;;;;;;;33.35;3.88;;;10.50;92.00;;;;;;7384464;19;20464;-70
2023/04/13 03:52:07;;;;;;;33.65;3.97;;;10.60;91.80;;;;;;7403554;19;20010;-71
2023/04/13 03:54:36;;;;;;;28.08;3.53;;;10.50;91.70;;;;;;7383517;19;20006;-71
2023/04/13 03:57:08;;;;;;;19.60;3.00;;;10.50;91.70;;;;;;7383866;19;20013;-72
2023/04/13 03:59:36;;;;;;;23.55;3.53;;;10.60;91.80;;;;;;7384252;19;20066;-72
2023/04/13 04:02:05;;;;;;;22.38;3.33;;;10.60;91.80;;;;;;7381820;19;20023;-72
2023/04/13 04:04:34;;;;;;;16.83;2.88;;;10.60;91.60;;;;;;7381337;19;20011;-72
2023/04/13 04:07:03;;;;;;;21.02;3.80;;;10.70;91.60;;;;;;7402570;19;20024;-72
2023/04/13 04:09:32;;;;;;;25.02;3.67;;;10.70;91.50;;;;;;7382967;19;20003;-71
2023/04/13 04:12:01;;;;;;;28.60;3.90;;;10.60;91.50;;;;;;7382583;19;20229;-72
2023/04/13 04:14:32;;;;;;;24.27;3.15;;;10.60;91.40;;;;;;7383562;19;20010;-71
2023/04/13 04:17:01;;;;;;;28.95;3.67;;;10.60;91.50;;;;;;7383499;19;20010;-72
2023/04/13 04:19:29;;;;;;;26.77;3.38;;;10.40;91.80;;;;;;7406398;19;20031;-72
2023/04/13 04:22:02;;;;;;;16.20;3.10;;;10.40;91.90;;;;;;7383510;19;20011;-72
2023/04/13 04:24:31;;;;;;;24.13;3.55;;;10.60;91.80;;;;;;7382949;19;20007;-73
2023/04/13 04:27:01;;;;;;;31.67;3.00;;;10.30;92.00;;;;;;7383334;19;20006;-72
2023/04/13 04:29:35;;;;;;;24.70;3.65;;;10.40;91.90;;;;;;7383266;19;20031;-72
2023/04/13 04:32:09;;;;;;;19.45;3.40;;;10.50;91.90;;;;;;7382788;19;20287;-72
2023/04/13 04:34:39;;;;;;;21.55;3.90;;;10.40;91.80;;;;;;7381720;19;20010;-72
2023/04/13 04:37:08;;;;;;;28.10;3.13;;;10.40;91.80;;;;;;7404058;19;20395;-72
2023/04/13 04:39:43;;;;;;;18.58;2.97;;;10.60;92.00;;;;;;7381918;19;20010;-72
2023/04/13 04:42:12;;;;;;;27.60;3.45;;;10.30;92.00;;;;;;7381760;19;20242;-72
2023/04/13 04:44:46;;;;;;;30.90;3.70;;;10.30;92.10;;;;;;7382539;19;20538;-73
2023/04/13 04:47:15;;;;;;;22.77;3.47;;;10.20;92.30;;;;;;7382377;19;20006;-72
2023/04/13 04:49:44;;;;;;;19.60;3.13;;;10.20;92.40;;;;;;7384248;19;20157;-72
2023/04/13 04:52:13;;;;;;;28.98;4.32;;;10.40;92.30;;;;;;7406192;19;20031;-72
2023/04/13 04:54:42;;;;;;;26.35;3.85;;;10.50;92.20;;;;;;7384113;19;20010;-72
2023/04/13 04:57:11;;;;;;;20.80;3.25;;;10.40;92.40;;;;;;7383180;19;20003;-72
2023/04/13 04:59:39;;;;;;;46.00;5.20;;;10.50;92.50;;;;;;7382591;19;19998;-72
2023/04/13 05:02:11;;;;;;;37.35;3.60;;;10.40;92.60;;;;;;7380953;19;20011;-73
2023/04/13 05:04:41;;;;;;;28.55;4.28;;;10.50;92.70;;;;;;7382603;19;20010;-72
2023/04/13 05:07:10;;;;;;;19.85;3.55;;;10.60;92.40;;;;;;7401020;19;20003;-73
2023/04/13 05:09:39;;;;;;;24.73;3.60;;;10.30;92.30;;;;;;7381061;19;20003;-72
2023/04/13 05:12:08;;;;;;;35.17;4.10;;;10.30;92.40;;;;;;7380764;19;20072;-72
2023/04/13 05:14:37;;;;;;;30.20;4.25;;;10.00;92.80;;;;;;7381580;19;20010;-72
2023/04/13 05:17:06;;;;;;;33.45;4.07;;;10.10;92.90;;;;;;7379601;19;20094;-72
2023/04/13 05:19:37;;;;;;;32.08;3.72;;;10.10;92.90;;;;;;7381455;19;20341;-72
2023/04/13 05:22:06;;;;;;;31.00;4.88;;;10.20;92.70;;;;;;7402949;19;20054;-72
2023/04/13 05:24:35;;;;;;;31.98;3.50;;;10.30;92.80;;;;;;7380752;19;20019;-72
2023/04/13 05:27:03;;;;;;;27.60;4.25;;;10.20;92.60;;;;;;7381283;19;20010;-72
2023/04/13 05:29:34;;;;;;;33.03;4.03;;;10.00;93.10;;;;;;7379967;19;20314;-72
2023/04/13 05:32:03;;;;;;;23.00;4.28;;;10.10;93.20;;;;;;7379944;19;20019;-72
2023/04/13 05:34:36;;;;;;;34.55;4.30;;;10.20;92.90;;;;;;7385993;19;20017;-72
2023/04/13 05:37:10;;;;;;;30.38;4.75;;;10.00;92.90;;;;;;7400182;19;20020;-72
2023/04/13 05:39:38;;;;;;;34.28;4.18;;;10.10;93.10;;;;;;7379708;19;20026;-72
2023/04/13 05:42:07;;;;;;;29.52;3.95;;;10.30;93.00;;;;;;7380270;19;20015;-70
2023/04/13 05:44:36;;;;;;;29.77;4.45;;;10.30;92.90;;;;;;7380579;19;20052;-70
2023/04/13 05:47:05;;;;;;;30.95;3.67;;;10.20;92.80;;;;;;7380783;19;20097;-70
2023/04/13 05:49:33;;;;;;;29.23;3.72;;;10.20;92.90;;;;;;7378520;19;20003;-70
2023/04/13 05:52:02;;;;;;;33.40;4.00;;;10.20;92.90;;;;;;7401982;19;20007;-72
2023/04/13 05:54:34;;;;;;;30.05;4.10;;;10.30;93.30;;;;;;7379237;19;20007;-72
2023/04/13 05:57:02;;;;;;;34.42;3.95;;;10.30;92.80;;;;;;7380079;19;20033;-72
2023/04/13 05:59:31;;;;;;;23.35;4.20;;;10.00;93.30;;;;;;7379973;19;20248;-72
2023/04/13 06:02:01;;;;;;;23.92;4.00;;;10.10;93.20;;;;;;7379865;19;20019;-72
2023/04/13 06:04:30;;;;;;;21.50;3.30;;;10.10;93.20;;;;;;7399286;19;20010;-71
2023/04/13 06:06:59;;;;;;;35.13;4.32;;;10.30;92.90;;;;;;7401224;19;20058;-71
2023/04/13 06:09:28;;;;;;;38.63;4.72;;;10.30;92.90;;;;;;7375102;19;20002;-72
2023/04/13 06:12:00;;;;;;;35.55;5.63;;;10.50;93.00;;;;;;7379006;19;20050;-71
2023/04/13 06:14:33;;;;;;;23.85;3.97;;;10.30;92.90;;;;;;7379934;19;20019;-71
2023/04/13 06:17:02;;;;;;;34.03;4.30;;;10.40;92.90;;;;;;7378553;19;20003;-71
2023/04/13 06:19:30;;;;;;;26.48;4.30;;;10.40;93.00;;;;;;7395980;19;20011;-72
2023/04/13 06:21:59;;;;;;;21.58;3.85;;;10.50;92.80;;;;;;7401173;19;20074;-71
2023/04/13 06:24:28;;;;;;;36.13;4.35;;;10.40;92.80;;;;;;7379877;19;20083;-71
2023/04/13 06:26:59;;;;;;;20.50;3.85;;;10.60;92.80;;;;;;7379242;19;20010;-70
2023/04/13 06:29:28;;;;;;;22.58;4.65;;;10.60;92.60;;;;;;7378123;19;20034;-71
2023/04/13 06:31:57;;;;;;;26.63;4.15;;;10.50;92.70;;;;;;7378534;19;20007;-71
2023/04/13 06:34:26;;;;;;;30.10;4.88;;;10.40;93.00;;;;;;7399249;19;20066;-71
2023/04/13 06:36:54;;;;;;;29.80;3.33;;;10.30;93.00;;;;;;7378209;19;20027;-71
2023/04/13 06:39:23;;;;;;;35.95;3.97;;;10.30;93.10;;;;;;7378142;19;20010;-71
2023/04/13 06:41:52;;;;;;;34.35;4.55;;;10.30;93.00;;;;;;7378828;19;20011;-71
2023/04/13 06:44:23;;;;;;;28.42;4.13;;;10.60;93.00;;;;;;7379044;19;20066;-71
2023/04/13 06:46:52;;;;;;;40.00;4.43;;;10.70;92.80;;;;;;7378835;19;20276;-72
2023/04/13 06:49:20;;;;;;;38.58;4.20;;;10.50;92.70;;;;;;7398481;19;20247;-71
2023/04/13 06:51:49;;;;;;;27.05;3.65;;;10.60;92.60;;;;;;7377487;19;20007;-71
2023/04/13 06:54:18;;;;;;;28.70;4.10;;;10.80;92.50;;;;;;7377358;19;20002;-72
2023/04/13 06:56:47;;;;;;;31.08;4.18;;;10.70;92.60;;;;;;7377937;19;20155;-72
2023/04/13 06:59:15;;;;;;;37.80;4.15;;;10.80;92.50;;;;;;7378529;19;20361;-72
2023/04/13 07:01:47;;;;;;;31.52;4.10;;;10.90;92.20;;;;;;7399966;19;20027;-72
2023/04/13 07:04:15;;;;;;;34.47;5.03;;;10.90;92.20;;;;;;7378739;19;20023;-75
2023/04/13 07:06:44;;;;;;;38.28;4.25;;;10.70;92.50;;;;;;7400051;19;20016;-74
2023/04/13 07:09:13;;;;;;;35.67;4.20;;;10.80;92.50;;;;;;7378183;19;20177;-74
2023/04/13 07:11:41;;;;;;;37.03;4.10;;;10.90;92.40;;;;;;7378722;19;20254;-73
2023/04/13 07:14:10;;;;;;;30.63;4.03;;;11.00;92.00;;;;;;7379328;19;20027;-73
2023/04/13 07:16:39;;;;;;;27.50;3.95;;;10.70;92.50;;;;;;7379785;19;20003;-74
2023/04/13 07:19:10;;;;;;;30.30;4.20;;;10.70;92.50;;;;;;7399379;19;20394;-73
2023/04/13 07:21:39;;;;;;;27.05;3.78;;;10.90;92.30;;;;;;7385385;19;20024;-72
2023/04/13 07:24:10;;;;;;;22.95;3.58;;;11.00;92.40;;;;;;7386750;19;20003;-75
2023/04/13 07:26:41;;;;;;;;;;;10.70;92.20;;;;;;7387983;19;20006;-72
2023/04/13 07:29:12;;;;;;;22.13;3.72;;;11.00;92.30;;;;;;7387250;19;19974;-72
2023/04/13 07:31:42;;;;;;;25.95;3.30;;;11.10;92.00;;;;;;7387096;19;20003;-71
2023/04/13 07:34:13;;;;;;;29.08;3.85;;;11.10;91.70;;;;;;7400042;19;20003;-72
2023/04/13 07:36:43;;;;;;;29.92;4.57;;;11.00;92.20;;;;;;7409584;19;20002;-72
2023/04/13 07:39:12;;;;;;;40.17;4.60;;;11.10;92.10;;;;;;7387165;19;20014;-72
2023/04/13 07:41:41;;;;;;;34.58;4.15;;;11.10;92.10;;;;;;7385738;19;20423;-74
2023/04/13 07:44:10;;;;;;;30.55;4.18;;;11.30;92.00;;;;;;7385343;19;20016;-73
2023/04/13 07:46:40;;;;;;;40.25;4.22;;;11.30;91.90;;;;;;7387296;19;20010;-73
2023/04/13 07:49:14;;;;;;;33.28;4.35;;;11.50;91.70;;;;;;7405558;19;20007;-73
2023/04/13 07:51:43;;;;;;;31.65;4.32;;;11.50;91.80;;;;;;7386204;19;20003;-73
2023/04/13 07:54:13;;;;;;;38.05;3.85;;;11.40;91.90;;;;;;7386200;19;20010;-73
2023/04/13 07:56:41;;;;;;;29.60;4.45;;;11.30;91.50;;;;;;7386011;19;20011;-74
2023/04/13 07:59:10;;;;;;;27.75;3.25;;;11.20;91.50;;;;;;7384972;19;20020;-74
2023/04/13 08:01:39;;;;;;;31.67;4.68;;;11.50;91.50;;;;;;7386636;19;20063;-73
2023/04/13 08:04:07;;;;;;;32.67;4.57;;;11.40;91.60;;;;;;7407313;19;20236;-74
2023/04/13 08:06:39;;;;;;;20.75;3.78;;;11.50;91.60;;;;;;7386118;19;20262;-73
2023/04/13 08:09:08;;;;;;;26.25;3.28;;;11.50;91.80;;;;;;7384651;19;20010;-72
2023/04/13 08:11:37;;;;;;;20.70;3.63;;;11.50;91.60;;;;;;7385806;19;20006;-74
2023/04/13 08:14:08;;;;;;;30.70;4.53;;;11.70;91.60;;;;;;7386064;19;20066;-73
2023/04/13 08:16:37;;;;;;;32.42;3.67;;;11.60;91.10;;;;;;7386352;19;20003;-74
2023/04/13 08:19:06;;;;;;;33.80;3.33;;;11.80;91.80;;;;;;7404224;19;20398;-73
2023/04/13 08:21:36;;;;;;;31.85;4.13;;;11.80;90.60;;;;;;7385395;19;20007;-73
2023/04/13 08:24:08;;;;;;;25.02;3.60;;;11.70;90.60;;;;;;7384856;19;20003;-73
2023/04/13 08:26:37;;;;;;;30.40;3.67;;;11.80;90.90;;;;;;7385329;19;20005;-72
2023/04/13 08:29:05;;;;;;;20.85;3.60;;;11.80;91.20;;;;;;7383087;19;20019;-72
2023/04/13 08:31:34;;;;;;;18.95;3.42;;;11.80;90.80;;;;;;7382867;19;20015;-76
2023/04/13 08:34:03;;;;;;;33.70;3.75;;;11.70;90.60;;;;;;7406468;19;20042;-74
2023/04/13 08:36:32;;;;;;;40.10;5.15;;;11.80;90.30;;;;;;7384628;19;20346;-74
2023/04/13 08:39:00;;;;;;;23.10;3.03;;;11.90;90.40;;;;;;7384447;19;20003;-74
2023/04/13 08:41:36;;;;;;;33.40;4.13;;;12.00;90.50;;;;;;7384837;19;20023;-74
2023/04/13 08:44:06;;;;;;;25.33;3.30;;;12.10;90.30;;;;;;7386105;19;19998;-73
2023/04/13 08:46:35;;;;;;;20.80;3.58;;;11.90;90.00;;;;;;7385355;19;20023;-73
2023/04/13 08:49:05;;;;;;;33.83;3.63;;;11.80;90.00;;;;;;7409398;19;20027;-72
2023/04/13 08:51:35;;;;;;;22.30;3.35;;;12.00;89.50;;;;;;7386165;19;20066;-72
2023/04/13 08:54:04;;;;;;;23.85;4.03;;;12.10;89.40;;;;;;7384216;19;20040;-76
2023/04/13 08:56:37;;;;;;;17.17;3.35;;;12.20;89.20;;;;;;7384936;19;20030;-73
2023/04/13 08:59:06;;;;;;;26.33;3.63;;;12.10;87.90;;;;;;7386413;19;20006;-74
2023/04/13 09:01:39;;;;;;;27.92;3.33;;;12.20;88.50;;;;;;7386273;19;20010;-73
2023/04/13 09:04:10;;;;;;;23.95;3.40;;;11.90;87.20;;;;;;7405126;19;20015;-73
2023/04/13 09:06:40;;;;;;;22.02;3.58;;;12.10;87.50;;;;;;7384406;19;20003;-74
2023/04/13 09:09:12;;;;;;;18.58;3.22;;;12.10;87.70;;;;;;7382898;19;19999;-73
2023/04/13 09:11:44;;;;;;;23.65;3.45;;;12.10;87.40;;;;;;7383430;19;20006;-73
2023/04/13 09:14:13;;;;;;;20.17;3.33;;;12.00;86.60;;;;;;7384074;19;20070;-73
2023/04/13 09:16:43;;;;;;;29.42;3.45;;;11.70;86.00;;;;;;7383595;19;20278;-73
2023/04/13 09:19:12;;;;;;;29.33;2.78;;;12.00;85.70;;;;;;7391652;19;20023;-73
2023/04/13 09:21:42;;;;;;;24.88;3.63;;;12.10;85.10;;;;;;7405255;19;20026;-71
2023/04/13 09:24:12;;;;;;;18.25;3.50;;;12.10;85.50;;;;;;7383074;19;20063;-73
2023/04/13 09:26:47;;;;;;;25.30;4.03;;;12.00;84.90;;;;;;7382790;19;20040;-74
2023/04/13 09:29:17;;;;;;;26.38;3.60;;;12.00;85.20;;;;;;7382671;19;20422;-74
2023/04/13 09:31:47;;;;;;;14.70;3.03;;;11.90;85.20;;;;;;7384460;19;20010;-73
2023/04/13 09:34:17;;;;;;;24.58;3.30;;;11.90;84.60;;;;;;7382739;19;20280;-76
2023/04/13 09:36:45;;;;;;;19.33;3.35;;;11.80;85.50;;;;;;7405310;19;20006;-74
2023/04/13 09:39:16;;;;;;;22.13;3.50;;;12.10;85.80;;;;;;7383193;19;20007;-73
2023/04/13 09:41:49;;;;;;;31.23;3.53;;;12.30;85.10;;;;;;7383086;19;20013;-75
2023/04/13 09:44:21;;;;;;;23.92;3.47;;;12.20;84.10;;;;;;7380179;19;20304;-76
2023/04/13 09:46:59;;;;;;;23.00;2.80;;;12.30;84.20;;;;;;7383057;19;20011;-74
2023/04/13 09:49:39;;;;;;;12.98;2.67;;;12.40;83.80;;;;;;7382131;19;20009;-76
2023/04/13 09:52:21;;;;;;;21.98;2.50;;;12.40;83.70;;;;;;7406073;19;20008;-77
2023/04/13 09:54:54;;;;;;;15.57;3.05;;;12.40;84.00;;;;;;7388734;19;20062;-73
2023/04/13 09:57:29;;;;;;;22.75;2.88;;;12.60;84.50;;;;;;7384918;19;20003;-75
2023/04/13 09:59:59;;;;;;;15.52;2.20;;;12.60;83.50;;;;;;7384078;19;20007;-74
2023/04/13 10:02:29;;;;;;;14.35;2.58;;;12.80;80.60;;;;;;7382589;19;20035;-73
2023/04/13 10:04:58;;;;;;;10.90;1.90;;;12.60;78.60;;;;;;7380856;19;20010;-75
2023/04/13 10:07:28;;;;;;;14.48;2.28;;;12.60;76.70;;;;;;7382088;19;20006;-72
2023/04/13 10:09:57;;;;;;;14.50;2.17;;;12.60;78.80;;;;;;7402753;19;20010;-72
2023/04/13 10:12:30;;;;;;;14.40;2.58;;;12.70;78.70;;;;;;7380931;19;20318;-76
2023/04/13 10:15:11;;;;;;;22.80;2.20;;;12.90;79.80;;;;;;7381705;19;19999;-72
2023/04/13 10:17:50;;;;;;;14.57;2.40;;;13.00;79.40;;;;;;7381031;19;20406;-73
2023/04/13 10:20:19;;;;;;;19.30;3.00;;;12.90;76.50;;;;;;7381019;19;20025;-75
2023/04/13 10:22:48;;;;;;;17.15;2.38;;;13.10;75.60;;;;;;7379957;19;20406;-74
2023/04/13 10:25:17;;;;;;;11.98;2.20;;;13.20;76.50;;;;;;7381591;19;20011;-75
2023/04/13 10:27:58;;;;;;;23.27;3.85;;;13.30;77.10;;;;;;7402152;19;20006;-73
2023/04/13 10:30:28;;;;;;;13.48;3.25;;;13.20;75.80;;;;;;7379578;19;20007;-74
2023/04/13 10:33:08;;;;;;;13.30;2.20;;;13.30;75.00;;;;;;7381208;19;20066;-73
2023/04/13 10:35:39;;;;;;;23.15;3.10;;;13.30;75.20;;;;;;7381315;19;20007;-74
2023/04/13 10:38:09;;;;;;;14.40;2.47;;;13.30;74.10;;;;;;7380662;19;20010;-75
2023/04/13 10:40:45;;;;;;;10.93;2.15;;;13.30;76.60;;;;;;7381529;19;20014;-75
2023/04/13 10:43:29;;;;;;;16.25;2.13;;;13.40;75.20;;;;;;7380787;19;20003;-75
2023/04/13 10:46:09;;;;;;;13.10;2.55;;;13.50;75.20;;;;;;7402485;19;20007;-73
2023/04/13 10:48:38;;;;;;;20.70;2.50;;;13.30;75.90;;;;;;7380031;19;20525;-73
2023/04/13 10:51:07;;;;;;;12.07;2.70;;;13.40;74.40;;;;;;7378616;19;20016;-73
2023/04/13 10:53:38;;;;;;;15.88;2.42;;;13.50;75.00;;;;;;7380800;19;20304;-73
2023/04/13 10:56:28;;;;;;;9.52;1.90;;;13.50;70.80;;;;;;7381615;19;20011;-75
2023/04/13 10:58:59;;;;;;;11.43;1.95;;;13.30;69.20;;;;;;7382443;19;20011;-76
2023/04/13 11:01:29;;;;;;;10.95;2.00;;;13.30;69.30;;;;;;7382808;19;20023;-75
2023/04/13 11:04:05;;;;;;;14.82;2.08;;;13.20;68.10;;;;;;7406834;19;20022;-75
2023/04/13 11:06:38;;;;;;;15.38;2.47;;;13.30;70.50;;;;;;7384610;19;20002;-76
2023/04/13 11:09:10;;;;;;;8.10;1.92;;;13.40;71.80;;;;;;7381319;19;20010;-76
2023/04/13 11:11:39;;;;;;;11.15;1.92;;;13.50;72.10;;;;;;7379905;19;20234;-75
2023/04/13 11:14:16;;;;;;;17.75;2.15;;;13.60;73.50;;;;;;7380472;19;19998;-76
2023/04/13 11:16:48;;;;;;;11.80;2.13;;;13.70;73.90;;;;;;7380009;19;20271;-76
2023/04/13 11:19:17;;;;;;;;;;;13.60;72.20;;;;;;7379488;19;20018;-74
2023/04/13 11:21:47;;;;;;;12.35;2.47;;;13.60;71.70;;;;;;7401424;19;19927;-74
2023/04/13 11:24:27;;;;;;;16.67;2.47;;;13.70;72.30;;;;;;7379086;19;20002;-75
2023/04/13 11:26:56;;;;;;;12.07;1.98;;;13.60;69.70;;;;;;7379868;19;20075;-75
2023/04/13 11:29:28;;;;;;;18.10;2.90;;;13.70;71.00;;;;;;7378138;19;20023;-75
2023/04/13 11:32:09;;;;;;;12.25;2.60;;;13.40;71.10;;;;;;7377831;19;20031;-76
2023/04/13 11:34:38;;;;;;;13.32;2.67;;;13.40;72.30;;;;;;7380078;19;20028;-76
2023/04/13 11:37:32;;;;;;;;;;;;;;;;;;;;;
2023/04/13 11:40:17;;;;;;;9.60;2.05;;;13.80;70.00;;;;;;7377783;19;20768;-74
2023/04/13 11:43:11;;;;;;;8.15;2.10;;;14.00;68.30;;;;;;7379315;19;20003;-76
2023/04/13 11:55:32;;;;;;;6.55;2.00;;;13.80;68.30;;;;;;7395720;19;20018;-76
2023/04/13 12:02:08;;;;;;;12.00;2.50;;;13.50;70.40;;;;;;7417411;19;20353;-77
2023/04/13 12:08:15;;;;;;;;;;;;;;;;;;;;;
2023/04/13 12:11:18;;;;;;;;;;;;;;;;;;;;;
2023/04/13 12:17:26;;;;;;;;;;;;;;;;;;;;;
2023/04/13 12:20:13;;;;;;;;;;;;;;;;;;;;;
2023/04/13 12:23:17;;;;;;;5.57;1.83;;;12.80;78.50;;;;;;7413015;19;20002;-76
2023/04/13 12:39:03;;;;;;;9.18;2.58;;;12.40;85.10;;;;;;6329850;19;16679376;-78
2023/04/13 12:44:53;;;;;;;;;;;;;;;;;;;;;
2023/04/13 12:47:34;;;;;;;5.25;1.40;;;13.60;87.90;;;;;;7413474;19;19999;-76
2023/04/13 12:50:18;;;;;;;8.23;1.80;;;14.00;86.90;;;;;;7417226;19;19998;-77
2023/04/13 12:52:48;;;;;;;11.60;2.00;;;14.40;84.20;;;;;;7414910;19;20003;-76
2023/04/13 12:55:29;;;;;;;10.40;1.83;;;14.60;81.10;;;;;;7415983;19;20002;-77
2023/04/13 12:58:07;;;;;;;9.27;1.60;;;14.50;80.10;;;;;;7436576;19;20037;-76
2023/04/13 13:00:41;;;;;;;9.15;1.70;;;14.80;80.00;;;;;;7417804;19;20023;-75
2023/04/13 13:03:18;;;;;;;11.75;2.13;;;14.70;76.30;;;;;;7416452;19;20013;-75
2023/04/13 13:05:56;;;;;;;10.02;1.92;;;14.90;75.10;;;;;;7416007;19;20006;-77
2023/04/13 13:08:44;;;;;;;;;;;;;;;;;;;;;
2023/04/13 13:11:22;;;;;;;11.70;1.75;;;14.90;72.20;;;;;;7437031;19;20008;-74
2023/04/13 13:13:52;;;;;;;8.25;1.98;;;15.00;73.00;;;;;;7417093;19;20014;-75
2023/04/13 13:17:05;;;;;;;7.38;1.75;;;15.30;74.10;;;;;;7416638;19;20015;-79
2023/04/13 13:19:34;;;;;;;8.20;2.08;;;15.30;71.40;;;;;;7418740;19;20036;-75
2023/04/13 13:26:02;;;;;;;;;;;;;;;;;;;;;
2023/04/13 13:29:13;;;;;;;9.85;2.17;;;15.20;71.10;;;;;;7416736;19;20100;-76
2023/04/13 13:32:11;;;;;;;;;;;;;;;;;;;;;
2023/04/13 13:34:40;;;;;;;11.40;2.00;;;15.00;73.20;;;;;;7418170;19;20002;-76
2023/04/13 13:37:09;;;;;;;13.68;2.08;;;15.00;72.90;;;;;;7435452;19;20031;-74
2023/04/13 13:39:39;;;;;;;11.60;2.00;;;14.80;74.30;;;;;;7388954;19;20070;-74
2023/04/13 13:42:07;;;;;;;12.57;2.40;;;14.80;76.10;;;;;;7386726;19;20023;-73
2023/04/13 13:44:39;;;;;;;11.43;2.47;;;14.70;75.10;;;;;;7386257;19;20094;-73
2023/04/13 13:47:08;;;;;;;6.03;1.85;;;14.50;75.50;;;;;;7386608;19;20062;-74
2023/04/13 13:49:36;;;;;;;13.82;2.50;;;14.80;76.70;;;;;;7384078;19;20011;-75
2023/04/13 13:52:05;;;;;;;17.23;2.42;;;14.90;72.60;;;;;;7408925;19;20018;-76